Time;durP1;ratioP1;P1;durP2;ratioP2;P2;SDS_P1;SDS_P2;PMS_P1;PMS_P2;Temp;Humidity;BMP_temperature;BMP_pressure;BME280_temperature;BME280_humidity;BME280_pressure;Samples;Min_cycle;Max_cycle;Signal;HPM_P1;HPM_P2
2022/12/02 00:01:39;;;;;;;44.00;20.65;;;1.00;99.90;;;;;;5070399;28;20029;-54
2022/12/02 00:04:24;;;;;;;36.92;20.35;;;0.90;99.90;;;;;;5070128;28;20143;-57
2022/12/02 00:06:51;;;;;;;45.20;20.88;;;0.90;99.90;;;;;;5052229;28;20028;-58
2022/12/02 00:09:32;;;;;;;41.03;20.35;;;0.90;99.90;;;;;;5070279;28;20111;-57
2022/12/02 00:12:00;;;;;;;39.33;20.48;;;0.90;99.90;;;;;;5057997;28;20488;-54
2022/12/02 00:14:29;;;;;;;39.90;20.77;;;0.90;99.90;;;;;;5050002;28;20145;-58
2022/12/02 00:16:56;;;;;;;37.10;19.60;;;0.90;99.90;;;;;;5052833;28;20437;-52
2022/12/02 00:19:22;;;;;;;37.33;19.25;;;0.80;99.90;;;;;;5070128;28;20476;-58
2022/12/02 00:21:49;;;;;;;39.10;20.25;;;0.80;99.90;;;;;;5070063;28;20484;-55
2022/12/02 00:24:16;;;;;;;43.15;21.55;;;0.80;99.90;;;;;;5070017;28;20032;-59
2022/12/02 00:26:43;;;;;;;50.42;24.17;;;0.80;99.90;;;;;;5070162;28;20033;-52
2022/12/02 00:29:09;;;;;;;42.60;21.88;;;0.80;99.90;;;;;;5069938;28;20021;-55
2022/12/02 00:31:35;;;;;;;41.25;21.77;;;0.80;99.90;;;;;;5070113;28;20036;-57
2022/12/02 00:34:01;;;;;;;41.93;21.90;;;0.80;99.90;;;;;;5069923;28;20549;-53
2022/12/02 00:36:27;;;;;;;42.05;22.17;;;0.80;99.90;;;;;;5070010;28;20064;-54
2022/12/02 00:38:54;;;;;;;38.77;21.57;;;0.80;99.90;;;;;;5069753;28;20031;-53
2022/12/02 00:41:19;;;;;;;40.57;21.90;;;0.80;99.90;;;;;;5069978;28;20036;-55
2022/12/02 00:46:32;;;;;;;40.95;21.25;;;0.80;99.90;;;;;;5070306;28;20031;-54
2022/12/02 00:48:59;;;;;;;34.33;18.85;;;0.80;99.90;;;;;;5073755;28;20380;-59
2022/12/02 00:51:25;;;;;;;35.72;17.10;;;0.80;99.90;;;;;;5073656;28;20516;-54
2022/12/02 00:53:51;;;;;;;40.63;20.25;;;0.80;99.90;;;;;;5073698;28;20078;-53
2022/12/02 00:56:16;;;;;;;36.72;19.63;;;0.80;99.90;;;;;;5073699;28;20040;-55
2022/12/02 00:58:42;;;;;;;36.33;19.65;;;0.80;99.90;;;;;;5073977;28;20028;-55
2022/12/02 01:01:08;;;;;;;38.33;20.13;;;0.80;99.90;;;;;;5073731;28;20394;-56
2022/12/02 01:03:34;;;;;;;36.67;20.03;;;0.80;99.90;;;;;;5073645;28;20386;-55
2022/12/02 01:06:00;;;;;;;37.95;20.02;;;0.90;99.90;;;;;;5073341;28;20819;-55
2022/12/02 01:08:26;;;;;;;36.63;19.77;;;0.90;99.90;;;;;;5073632;28;20028;-55
2022/12/02 01:10:56;;;;;;;34.78;19.02;;;0.80;99.90;;;;;;5073396;28;20115;-52
2022/12/02 01:13:23;;;;;;;35.60;17.42;;;0.80;99.90;;;;;;5073230;28;20055;-53
2022/12/02 01:15:49;;;;;;;33.55;18.08;;;0.90;99.90;;;;;;5073199;28;20076;-54
2022/12/02 01:18:15;;;;;;;32.77;18.80;;;0.80;99.90;;;;;;5041733;28;20136;-54
2022/12/02 01:20:41;;;;;;;34.85;19.13;;;0.80;99.90;;;;;;5053512;28;20104;-54
2022/12/02 01:23:07;;;;;;;34.33;18.55;;;0.80;99.90;;;;;;5053283;28;20476;-53
2022/12/02 01:25:33;;;;;;;32.40;17.70;;;0.80;99.90;;;;;;5052976;28;20392;-55
2022/12/02 01:27:58;;;;;;;36.55;18.13;;;0.80;99.90;;;;;;5053034;28;20025;-55
2022/12/02 01:30:24;;;;;;;33.08;18.88;;;0.80;99.90;;;;;;5053035;28;20079;-54
2022/12/02 01:32:50;;;;;;;33.13;18.05;;;0.80;99.90;;;;;;5052790;28;20024;-53
2022/12/02 01:35:16;;;;;;;34.20;19.25;;;0.80;99.90;;;;;;5052755;28;20124;-53
2022/12/02 01:37:42;;;;;;;38.35;18.90;;;0.80;99.90;;;;;;5053062;28;20052;-53
2022/12/02 01:40:09;;;;;;;37.13;18.55;;;0.80;99.90;;;;;;5052831;28;20064;-56
2022/12/02 01:42:35;;;;;;;33.83;17.75;;;0.80;99.90;;;;;;5052690;28;20043;-53
2022/12/02 01:45:01;;;;;;;36.28;19.95;;;0.70;99.90;;;;;;5052768;28;20100;-53
2022/12/02 01:47:27;;;;;;;34.85;18.27;;;0.70;99.90;;;;;;5052617;28;20037;-53
2022/12/02 01:49:53;;;;;;;37.05;18.48;;;0.70;99.90;;;;;;5052507;28;20064;-54
2022/12/02 01:52:19;;;;;;;35.53;17.63;;;0.60;99.90;;;;;;5034538;28;20036;-59
2022/12/02 01:54:45;;;;;;;37.22;18.38;;;0.60;99.90;;;;;;5052350;28;20049;-59
2022/12/02 01:57:13;;;;;;;35.88;19.00;;;0.60;99.90;;;;;;5052484;28;20025;-59
2022/12/02 01:59:42;;;;;;;39.38;19.00;;;0.70;99.90;;;;;;5052082;28;20116;-58
2022/12/02 02:02:31;;;;;;;35.25;17.98;;;0.70;99.90;;;;;;5052349;28;20365;-56
2022/12/02 02:05:00;;;;;;;32.15;17.75;;;0.60;99.90;;;;;;5052322;28;20064;-59
2022/12/02 02:07:27;;;;;;;38.13;20.08;;;0.60;99.90;;;;;;5052448;28;20091;-55
2022/12/02 02:09:53;;;;;;;33.30;18.33;;;0.60;99.90;;;;;;5052277;28;20021;-59
2022/12/02 02:12:21;;;;;;;35.75;16.65;;;0.70;99.90;;;;;;5052053;28;20488;-54
2022/12/02 02:14:46;;;;;;;;;;;0.60;99.90;;;;;;5034465;28;20033;-59
2022/12/02 02:17:12;;;;;;;41.70;18.88;;;0.60;99.90;;;;;;5052695;28;19909;-59
2022/12/02 02:19:38;;;;;;;33.35;17.08;;;0.60;99.90;;;;;;5072100;28;20044;-59
2022/12/02 02:22:10;;;;;;;33.67;17.27;;;0.60;99.90;;;;;;5071750;28;20077;-58
2022/12/02 02:24:35;;;;;;;33.63;17.52;;;0.60;99.90;;;;;;5069956;28;20439;-60
2022/12/02 02:27:01;;;;;;;33.33;17.77;;;0.60;99.90;;;;;;5066813;28;20570;-58
2022/12/02 02:29:27;;;;;;;39.30;20.42;;;0.60;99.90;;;;;;5054820;28;20025;-61
2022/12/02 02:31:53;;;;;;;36.67;19.20;;;0.70;99.90;;;;;;5055617;28;20086;-60
2022/12/02 02:34:19;;;;;;;40.33;20.20;;;0.60;99.90;;;;;;5054062;28;20162;-59
2022/12/02 02:36:45;;;;;;;38.55;20.10;;;0.70;99.90;;;;;;5071681;28;20033;-58
2022/12/02 02:39:10;;;;;;;32.28;17.45;;;0.70;99.90;;;;;;5071811;28;20020;-60
2022/12/02 02:41:36;;;;;;;36.05;19.27;;;0.60;99.90;;;;;;5071363;28;20112;-60
2022/12/02 02:44:02;;;;;;;39.53;18.80;;;0.70;99.90;;;;;;5072194;28;20123;-60
2022/12/02 02:46:28;;;;;;;32.75;18.40;;;0.60;99.90;;;;;;5053319;28;20025;-55
2022/12/02 02:48:54;;;;;;;33.78;18.50;;;0.70;99.90;;;;;;5052135;28;20044;-58
2022/12/02 02:51:20;;;;;;;38.75;18.88;;;0.70;99.90;;;;;;5051729;28;20032;-59
2022/12/02 02:53:46;;;;;;;34.05;16.50;;;0.70;99.90;;;;;;5051151;28;20120;-55
2022/12/02 02:56:12;;;;;;;38.45;18.98;;;0.70;99.90;;;;;;5051290;28;20120;-58
2022/12/02 02:58:38;;;;;;;39.90;18.30;;;0.70;99.90;;;;;;5051272;28;20025;-58
2022/12/02 03:01:08;;;;;;;37.72;16.80;;;0.70;99.90;;;;;;5051525;28;20025;-55
2022/12/02 03:04:02;;;;;;;32.38;16.35;;;0.70;99.90;;;;;;5051326;28;20021;-56
2022/12/02 03:06:29;;;;;;;32.53;15.73;;;0.60;99.90;;;;;;5047858;28;20779;-55
2022/12/02 03:08:55;;;;;;;33.28;16.92;;;0.60;99.90;;;;;;5050857;28;20029;-55
2022/12/02 03:11:21;;;;;;;36.70;16.45;;;0.60;99.90;;;;;;5050707;28;20113;-53
2022/12/02 03:13:49;;;;;;;29.52;16.00;;;0.60;99.90;;;;;;5051007;28;20484;-53
2022/12/02 03:16:17;;;;;;;33.72;17.35;;;0.60;99.90;;;;;;5050941;28;20045;-54
2022/12/02 03:18:45;;;;;;;29.15;15.25;;;0.60;99.90;;;;;;5051062;28;20032;-55
2022/12/02 03:21:13;;;;;;;36.08;16.65;;;0.60;99.90;;;;;;5056978;28;20027;-56
2022/12/02 03:23:39;;;;;;;29.25;16.33;;;0.60;99.90;;;;;;5071013;28;20052;-56
2022/12/02 03:26:05;;;;;;;28.52;14.70;;;0.50;99.90;;;;;;5070745;28;20059;-56
2022/12/02 03:28:31;;;;;;;31.67;16.88;;;0.50;99.90;;;;;;5071118;28;20031;-58
2022/12/02 03:30:57;;;;;;;30.15;15.57;;;0.50;99.90;;;;;;5070734;28;20020;-54
2022/12/02 03:33:23;;;;;;;32.63;15.70;;;0.60;99.90;;;;;;5070769;28;20038;-55
2022/12/02 03:35:49;;;;;;;31.67;16.92;;;0.60;99.90;;;;;;5070485;28;20045;-54
2022/12/02 03:38:15;;;;;;;29.85;15.00;;;0.60;99.90;;;;;;5070515;28;20067;-55
2022/12/02 03:40:41;;;;;;;30.23;15.33;;;0.50;99.90;;;;;;5070859;28;20025;-53
2022/12/02 03:43:07;;;;;;;34.40;16.05;;;0.60;99.90;;;;;;5070373;28;20407;-52
2022/12/02 03:45:34;;;;;;;31.08;17.60;;;0.50;99.90;;;;;;5070378;28;20032;-53
2022/12/02 03:48:01;;;;;;;30.23;15.85;;;0.60;99.90;;;;;;5070353;28;20042;-56
2022/12/02 03:50:27;;;;;;;;;;;0.50;99.90;;;;;;5070884;28;20033;-58
2022/12/02 03:52:54;;;;;;;28.00;14.55;;;0.50;99.90;;;;;;5052311;28;19912;-58
2022/12/02 03:55:20;;;;;;;28.92;14.55;;;0.40;99.90;;;;;;5070145;28;20396;-54
2022/12/02 03:57:45;;;;;;;31.08;15.82;;;0.40;99.90;;;;;;5070465;28;20040;-52
2022/12/02 04:00:12;;;;;;;28.70;14.65;;;0.40;99.90;;;;;;5070315;28;20146;-55
2022/12/02 04:02:37;;;;;;;32.83;16.77;;;0.40;99.90;;;;;;5070018;28;20035;-53
2022/12/02 04:05:03;;;;;;;27.83;15.75;;;0.40;99.90;;;;;;5070350;28;20033;-55
2022/12/02 04:07:29;;;;;;;31.23;17.10;;;0.40;99.90;;;;;;5070193;28;20032;-54
2022/12/02 04:09:54;;;;;;;38.42;16.85;;;0.40;99.90;;;;;;5070003;28;20036;-54
2022/12/02 04:12:20;;;;;;;36.58;17.90;;;0.40;99.90;;;;;;5069939;28;20036;-52
2022/12/02 04:14:46;;;;;;;33.85;19.20;;;0.40;99.90;;;;;;5069947;28;20406;-56
2022/12/02 04:17:11;;;;;;;36.53;18.40;;;0.40;99.90;;;;;;5069992;28;20036;-56
2022/12/02 04:19:37;;;;;;;37.92;18.90;;;0.30;99.90;;;;;;5070160;28;20021;-56
2022/12/02 04:22:02;;;;;;;34.83;17.35;;;0.30;99.90;;;;;;5057015;28;20025;-55
2022/12/02 04:24:28;;;;;;;39.78;18.38;;;0.30;99.90;;;;;;5049862;28;20027;-54
2022/12/02 04:26:54;;;;;;;39.22;19.80;;;0.30;99.90;;;;;;5055205;28;20099;-54
2022/12/02 04:29:20;;;;;;;36.97;19.88;;;0.30;99.90;;;;;;5069855;28;20658;-58
2022/12/02 04:31:46;;;;;;;34.85;19.40;;;0.30;99.90;;;;;;5069930;28;20029;-54
2022/12/02 04:34:11;;;;;;;38.33;18.83;;;0.30;99.90;;;;;;5069869;28;20024;-53
2022/12/02 04:36:37;;;;;;;37.00;20.02;;;0.30;99.90;;;;;;5069944;28;20075;-53
2022/12/02 04:39:03;;;;;;;38.40;19.42;;;0.30;99.90;;;;;;5070029;28;20017;-54
2022/12/02 04:41:29;;;;;;;39.33;19.93;;;0.30;99.90;;;;;;5069776;28;20031;-52
2022/12/02 04:43:55;;;;;;;32.20;17.27;;;0.30;99.90;;;;;;5069778;28;20017;-54
2022/12/02 04:46:20;;;;;;;32.78;18.25;;;0.30;99.90;;;;;;5051880;28;20029;-54
2022/12/02 04:48:46;;;;;;;32.03;16.60;;;0.20;99.90;;;;;;5069494;28;20051;-54
2022/12/02 04:51:11;;;;;;;32.83;15.45;;;0.10;99.90;;;;;;5051523;28;20036;-57
2022/12/02 04:53:37;;;;;;;27.77;14.73;;;0.10;99.90;;;;;;5069601;28;20063;-59
2022/12/02 04:56:03;;;;;;;33.13;16.35;;;0.10;99.90;;;;;;5051873;28;20036;-58
2022/12/02 04:58:28;;;;;;;27.20;14.88;;;0.00;99.90;;;;;;5069572;28;20095;-57
2022/12/02 05:00:54;;;;;;;30.45;15.27;;;0.10;99.90;;;;;;5068091;28;20032;-57
2022/12/02 05:03:20;;;;;;;26.25;14.27;;;0.00;99.90;;;;;;5049829;28;20357;-53
2022/12/02 05:05:45;;;;;;;23.58;13.35;;;0.00;99.90;;;;;;5049610;28;20495;-53
2022/12/02 05:08:11;;;;;;;30.35;15.48;;;0.00;99.90;;;;;;5048277;28;20380;-53
2022/12/02 05:10:36;;;;;;;24.52;13.98;;;0.00;99.90;;;;;;5048360;28;20041;-55
2022/12/02 05:13:02;;;;;;;27.88;14.52;;;0.00;99.90;;;;;;5049415;28;20025;-57
2022/12/02 05:15:28;;;;;;;30.23;15.10;;;0.00;99.90;;;;;;5030156;28;20672;-59
2022/12/02 05:17:53;;;;;;;28.15;14.68;;;0.00;99.90;;;;;;5049376;28;20021;-59
2022/12/02 05:20:19;;;;;;;24.23;13.55;;;0.00;99.90;;;;;;5048678;28;20033;-57
2022/12/02 05:22:44;;;;;;;28.38;14.93;;;-0.10;99.90;;;;;;5054813;28;20025;-54
2022/12/02 05:25:10;;;;;;;29.38;14.65;;;0.00;99.90;;;;;;5047534;28;20112;-53
2022/12/02 05:27:36;;;;;;;23.08;13.55;;;-0.10;99.90;;;;;;5047542;28;20720;-53
2022/12/02 05:30:03;;;;;;;25.92;14.23;;;-0.10;99.90;;;;;;5047419;28;20021;-52
2022/12/02 05:32:29;;;;;;;26.23;14.35;;;-0.10;99.90;;;;;;5047871;28;20032;-57
2022/12/02 05:34:54;;;;;;;24.90;13.77;;;-0.10;99.90;;;;;;5051107;28;20029;-59
2022/12/02 05:37:20;;;;;;;28.52;14.52;;;-0.10;99.90;;;;;;5051360;28;20035;-58
2022/12/02 05:39:46;;;;;;;27.08;14.63;;;-0.10;99.90;;;;;;5051638;28;20025;-57
2022/12/02 05:42:13;;;;;;;28.02;13.95;;;0.00;99.90;;;;;;5051426;28;20044;-53
2022/12/02 05:44:41;;;;;;;28.92;14.38;;;0.00;99.90;;;;;;5051504;28;20031;-52
2022/12/02 05:47:12;;;;;;;23.98;13.52;;;0.00;99.90;;;;;;5052632;28;20044;-53
2022/12/02 05:49:40;;;;;;;26.65;13.63;;;0.00;99.90;;;;;;5050227;28;20353;-52
2022/12/02 05:52:19;;;;;;;28.83;13.18;;;0.00;99.90;;;;;;5070791;28;20067;-54
2022/12/02 05:54:45;;;;;;;29.02;13.70;;;0.00;99.90;;;;;;5068629;28;20048;-53
2022/12/02 05:57:11;;;;;;;23.08;12.50;;;0.00;99.90;;;;;;5072519;28;20503;-53
2022/12/02 05:59:37;;;;;;;22.88;12.68;;;0.00;99.90;;;;;;5052110;28;20079;-57
2022/12/02 06:02:21;;;;;;;27.80;14.52;;;0.00;99.90;;;;;;5064244;28;20029;-54
2022/12/02 06:04:47;;;;;;;28.60;14.75;;;0.00;99.90;;;;;;5069398;28;20032;-54
2022/12/02 06:07:13;;;;;;;24.13;12.95;;;0.00;99.90;;;;;;5052360;28;20039;-53
2022/12/02 06:09:38;;;;;;;29.67;14.77;;;0.00;99.90;;;;;;5042307;28;20021;-56
2022/12/02 06:12:14;;;;;;;26.60;13.98;;;0.00;99.90;;;;;;5058644;28;20032;-56
2022/12/02 06:14:44;;;;;;;30.48;15.35;;;0.00;99.90;;;;;;5062580;28;20032;-55
2022/12/02 06:17:15;;;;;;;24.55;14.00;;;0.00;99.90;;;;;;5060966;28;20777;-54
2022/12/02 06:19:45;;;;;;;28.30;15.02;;;0.10;99.90;;;;;;5059337;28;20138;-53
2022/12/02 06:22:24;;;;;;;31.00;15.95;;;0.10;99.90;;;;;;5059109;28;20017;-53
2022/12/02 06:24:50;;;;;;;26.05;13.48;;;0.10;99.90;;;;;;5060042;28;20033;-54
2022/12/02 06:27:17;;;;;;;27.15;14.38;;;0.10;99.90;;;;;;5052073;28;20029;-52
2022/12/02 06:29:53;;;;;;;29.42;15.23;;;0.00;99.90;;;;;;5059631;28;20045;-55
2022/12/02 06:32:21;;;;;;;30.73;14.50;;;0.10;99.90;;;;;;5060036;28;20094;-53
2022/12/02 06:34:49;;;;;;;26.20;14.48;;;0.10;99.90;;;;;;5051641;28;20025;-54
2022/12/02 06:37:21;;;;;;;25.83;13.20;;;0.10;99.90;;;;;;5051359;28;20479;-60
2022/12/02 06:39:52;;;;;;;21.10;11.20;;;0.00;99.90;;;;;;5051617;28;20057;-54
2022/12/02 06:42:33;;;;;;;30.48;13.48;;;0.00;99.90;;;;;;5033325;28;20029;-60
2022/12/02 06:45:21;;;;;;;26.55;13.10;;;0.00;99.90;;;;;;5050439;28;20422;-58
2022/12/02 06:47:50;;;;;;;25.50;12.90;;;0.10;99.90;;;;;;5060955;28;20033;-53
2022/12/02 06:50:24;;;;;;;26.20;14.60;;;0.10;99.90;;;;;;5071235;28;20028;-57
2022/12/02 06:52:50;;;;;;;27.98;14.15;;;0.00;99.90;;;;;;5063806;28;20535;-52
2022/12/02 06:55:33;;;;;;;31.42;15.05;;;0.10;99.90;;;;;;5050704;28;20409;-54
2022/12/02 06:58:19;;;;;;;26.30;13.32;;;0.10;99.90;;;;;;5066831;28;20046;-52
2022/12/02 07:00:44;;;;;;;26.30;13.82;;;0.00;99.90;;;;;;5052795;28;20033;-59
2022/12/02 07:03:22;;;;;;;28.15;13.55;;;0.00;99.90;;;;;;5070570;28;20085;-58
2022/12/02 07:05:51;;;;;;;21.92;11.88;;;0.10;99.90;;;;;;5070568;28;20557;-53
2022/12/02 07:08:17;;;;;;;21.25;11.82;;;0.00;99.90;;;;;;5069886;28;20112;-58
2022/12/02 07:10:42;;;;;;;19.65;10.30;;;0.10;99.90;;;;;;5059403;28;20108;-54
2022/12/02 07:13:14;;;;;;;26.80;11.93;;;0.00;99.90;;;;;;5059231;28;20116;-53
2022/12/02 07:15:41;;;;;;;32.30;15.32;;;0.10;99.90;;;;;;5061590;28;20060;-58
2022/12/02 07:18:18;;;;;;;29.67;15.02;;;0.10;99.90;;;;;;5064410;28;20078;-57
2022/12/02 07:20:45;;;;;;;26.20;12.82;;;0.10;99.90;;;;;;5070605;28;20119;-58
2022/12/02 07:23:21;;;;;;;22.25;11.90;;;0.10;99.90;;;;;;5063115;28;20543;-55
2022/12/02 07:25:51;;;;;;;24.85;12.15;;;0.10;99.90;;;;;;5061398;28;20078;-59
2022/12/02 07:28:40;;;;;;;26.27;14.20;;;0.10;99.90;;;;;;5059971;28;20029;-54
2022/12/02 07:31:16;;;;;;;25.05;12.65;;;0.10;99.90;;;;;;5053240;28;20029;-55
2022/12/02 07:33:42;;;;;;;23.58;12.98;;;0.10;99.90;;;;;;5063589;28;20029;-56
2022/12/02 07:36:08;;;;;;;23.63;12.52;;;0.10;99.90;;;;;;5070330;28;20032;-59
2022/12/02 07:38:33;;;;;;;24.75;13.05;;;0.10;99.90;;;;;;5064247;28;20032;-58
2022/12/02 07:40:59;;;;;;;25.88;13.45;;;0.10;99.90;;;;;;5062518;28;20033;-57
2022/12/02 07:43:25;;;;;;;24.75;12.65;;;0.10;99.90;;;;;;5069151;28;20020;-58
2022/12/02 07:45:51;;;;;;;31.95;16.90;;;0.10;99.90;;;;;;5069511;28;20036;-57
2022/12/02 07:48:16;;;;;;;40.30;21.50;;;0.10;99.90;;;;;;5069242;28;20460;-58
2022/12/02 07:50:42;;;;;;;41.55;22.13;;;0.10;99.90;;;;;;5069174;28;20538;-57
2022/12/02 07:53:08;;;;;;;43.25;21.80;;;0.10;99.90;;;;;;5052464;28;20033;-53
2022/12/02 07:55:33;;;;;;;35.25;18.65;;;0.10;99.90;;;;;;5069670;28;20578;-53
2022/12/02 07:57:59;;;;;;;29.42;15.52;;;0.10;99.90;;;;;;5070234;28;20051;-54
2022/12/02 08:00:25;;;;;;;27.17;15.00;;;0.10;99.90;;;;;;5067099;28;20071;-54
2022/12/02 08:02:51;;;;;;;25.08;13.57;;;0.10;99.90;;;;;;5067120;28;20041;-54
2022/12/02 08:05:17;;;;;;;29.05;15.68;;;0.10;99.90;;;;;;5070221;28;20051;-52
2022/12/02 08:07:43;;;;;;;27.27;14.95;;;0.10;99.90;;;;;;5052184;28;20128;-54
2022/12/02 08:10:09;;;;;;;25.17;14.10;;;0.10;99.90;;;;;;5052148;28;20103;-52
2022/12/02 08:12:35;;;;;;;27.27;14.20;;;0.10;99.90;;;;;;5069970;28;20499;-56
2022/12/02 08:15:00;;;;;;;24.90;12.30;;;0.10;99.90;;;;;;5051959;28;20518;-54
2022/12/02 08:17:26;;;;;;;18.45;9.90;;;0.10;99.90;;;;;;5070004;28;20040;-52
2022/12/02 08:19:51;;;;;;;22.33;11.65;;;0.20;99.90;;;;;;5069936;28;20024;-52
2022/12/02 08:22:17;;;;;;;23.58;12.63;;;0.20;99.90;;;;;;5069534;28;20050;-55
2022/12/02 08:24:43;;;;;;;21.05;11.25;;;0.20;99.90;;;;;;5058149;28;20028;-57
2022/12/02 08:27:08;;;;;;;22.88;11.32;;;0.20;99.90;;;;;;5050012;28;20155;-57
2022/12/02 08:29:41;;;;;;;26.88;13.45;;;0.10;99.90;;;;;;5050160;28;20504;-60
2022/12/02 08:32:07;;;;;;;24.25;13.02;;;0.10;99.90;;;;;;5050747;28;20025;-55
2022/12/02 08:34:32;;;;;;;22.75;12.73;;;0.20;99.90;;;;;;5057927;28;20380;-53
2022/12/02 08:36:58;;;;;;;25.73;13.05;;;0.10;99.90;;;;;;5058440;28;20040;-55
2022/12/02 08:39:24;;;;;;;24.80;12.50;;;0.20;99.90;;;;;;5061737;28;20020;-53
2022/12/02 08:41:49;;;;;;;25.80;11.65;;;0.10;99.90;;;;;;5059821;28;20032;-55
2022/12/02 08:44:15;;;;;;;23.08;12.05;;;0.20;99.90;;;;;;5058273;28;20024;-59
2022/12/02 08:46:41;;;;;;;23.23;13.05;;;0.20;99.90;;;;;;5059380;28;20663;-61
2022/12/02 08:49:06;;;;;;;23.27;12.52;;;0.20;99.90;;;;;;5059890;28;20025;-59
2022/12/02 08:51:33;;;;;;;27.27;12.15;;;0.20;99.90;;;;;;5058734;28;20376;-55
2022/12/02 08:53:59;;;;;;;;;;;0.20;99.90;;;;;;5055659;28;20037;-55
2022/12/02 08:56:25;;;;;;;22.52;9.82;;;0.10;99.90;;;;;;5060028;28;20047;-54
2022/12/02 08:58:51;;;;;;;20.15;11.00;;;0.10;99.90;;;;;;5059540;28;20035;-54
2022/12/02 09:01:16;;;;;;;17.95;9.80;;;0.10;99.90;;;;;;5058131;28;20495;-55
2022/12/02 09:03:43;;;;;;;22.02;11.20;;;0.10;99.90;;;;;;5058577;28;20079;-55
2022/12/02 09:06:08;;;;;;;22.38;11.70;;;0.10;99.90;;;;;;5057333;28;20033;-51
2022/12/02 09:08:34;;;;;;;25.20;12.90;;;0.10;99.90;;;;;;5062833;28;20023;-55
2022/12/02 09:10:59;;;;;;;25.58;12.95;;;0.10;99.90;;;;;;5065450;28;20033;-57
2022/12/02 09:13:25;;;;;;;23.08;12.45;;;0.10;99.90;;;;;;5064007;28;20671;-57
2022/12/02 09:15:51;;;;;;;25.13;12.48;;;0.10;99.90;;;;;;5053409;28;20037;-60
2022/12/02 09:18:16;;;;;;;21.50;12.35;;;0.10;99.90;;;;;;5062284;28;20142;-57
2022/12/02 09:20:42;;;;;;;29.38;14.80;;;0.10;99.90;;;;;;5059912;28;20041;-58
2022/12/02 09:23:08;;;;;;;23.05;12.75;;;0.20;99.90;;;;;;5057990;28;20017;-55
2022/12/02 09:25:33;;;;;;;19.98;11.18;;;0.20;99.90;;;;;;5068759;28;20032;-54
2022/12/02 09:27:59;;;;;;;23.38;11.82;;;0.10;99.90;;;;;;5059687;28;20029;-54
2022/12/02 09:30:25;;;;;;;21.38;10.68;;;0.10;99.90;;;;;;5059926;28;20059;-53
2022/12/02 09:32:50;;;;;;;18.42;10.13;;;0.10;99.90;;;;;;5071482;28;20029;-53
2022/12/02 09:35:16;;;;;;;19.10;10.25;;;0.10;99.90;;;;;;5071191;28;20036;-56
2022/12/02 09:37:42;;;;;;;22.00;11.57;;;0.10;99.90;;;;;;5071560;28;20081;-60
2022/12/02 09:40:08;;;;;;;24.08;11.48;;;0.20;99.90;;;;;;5069915;28;20024;-59
2022/12/02 09:42:34;;;;;;;21.42;10.68;;;0.20;99.90;;;;;;5067196;28;20855;-54
2022/12/02 09:45:00;;;;;;;25.77;12.13;;;0.20;99.90;;;;;;5071752;28;20477;-56
2022/12/02 09:47:27;;;;;;;24.50;14.38;;;0.20;99.90;;;;;;5071536;28;20024;-54
2022/12/02 09:49:54;;;;;;;28.05;14.98;;;0.20;99.90;;;;;;5071410;28;20381;-60
2022/12/02 09:52:25;;;;;;;40.97;19.50;;;0.20;99.90;;;;;;5028601;28;20029;-53
2022/12/02 09:54:56;;;;;;;36.25;19.35;;;0.20;99.90;;;;;;5071003;28;20052;-53
2022/12/02 09:57:30;;;;;;;34.03;17.80;;;0.30;99.90;;;;;;5053295;28;20028;-55
2022/12/02 09:59:58;;;;;;;21.63;12.05;;;0.20;99.90;;;;;;5071190;28;20503;-55
2022/12/02 10:02:51;;;;;;;25.98;13.45;;;0.20;99.90;;;;;;5068513;28;20131;-52
2022/12/02 10:05:25;;;;;;;21.50;12.32;;;0.20;99.90;;;;;;5067769;28;20496;-60
2022/12/02 10:07:54;;;;;;;22.02;11.27;;;0.20;99.90;;;;;;5065197;28;20084;-54
2022/12/02 10:10:33;;;;;;;24.20;12.57;;;0.20;99.90;;;;;;5047997;28;20590;-60
2022/12/02 10:12:59;;;;;;;25.48;12.18;;;0.20;99.90;;;;;;5055319;28;20131;-53
2022/12/02 10:15:31;;;;;;;23.13;13.50;;;0.30;99.90;;;;;;5044590;28;20035;-60
2022/12/02 10:18:12;;;;;;;26.27;13.82;;;0.30;99.90;;;;;;5067343;28;20066;-54
2022/12/02 10:20:38;;;;;;;26.10;13.02;;;0.30;99.90;;;;;;5070146;28;20032;-54
2022/12/02 10:23:14;;;;;;;23.73;14.10;;;0.30;99.90;;;;;;5053273;28;20025;-52
2022/12/02 10:25:42;;;;;;;24.48;12.70;;;0.30;99.90;;;;;;5070662;28;20526;-52
2022/12/02 10:28:21;;;;;;;26.23;14.27;;;0.30;99.90;;;;;;5070814;28;20048;-55
2022/12/02 10:30:52;;;;;;;23.77;12.23;;;0.30;99.90;;;;;;5068679;28;20416;-51
2022/12/02 10:33:22;;;;;;;24.38;12.95;;;0.30;99.90;;;;;;5070788;28;20116;-53
2022/12/02 10:35:50;;;;;;;20.70;10.35;;;0.20;99.90;;;;;;5070678;28;20029;-56
2022/12/02 10:38:27;;;;;;;23.67;11.80;;;0.10;99.90;;;;;;5070991;28;20032;-55
2022/12/02 10:41:09;;;;;;;21.77;11.50;;;0.10;99.90;;;;;;5061008;28;20028;-57
2022/12/02 10:43:35;;;;;;;24.52;12.50;;;0.20;99.90;;;;;;5069611;28;20111;-53
2022/12/02 10:46:00;;;;;;;24.38;12.88;;;0.10;99.90;;;;;;5070384;28;20112;-55
2022/12/02 10:48:26;;;;;;;23.92;12.77;;;0.10;99.90;;;;;;5070939;28;20112;-58
2022/12/02 10:50:52;;;;;;;27.80;14.02;;;0.10;99.90;;;;;;5065813;28;20032;-56
2022/12/02 10:53:18;;;;;;;26.70;13.55;;;0.10;99.90;;;;;;5043333;28;20037;-55
2022/12/02 10:55:47;;;;;;;23.65;13.85;;;0.10;99.90;;;;;;5070857;28;20476;-58
2022/12/02 10:58:19;;;;;;;27.70;14.23;;;0.10;99.90;;;;;;5071064;28;20041;-53
2022/12/02 11:00:45;;;;;;;32.83;14.77;;;0.10;99.90;;;;;;5063575;28;20031;-56
2022/12/02 11:03:10;;;;;;;26.17;14.75;;;0.10;99.90;;;;;;5059002;28;20020;-56
2022/12/02 11:05:37;;;;;;;28.23;14.52;;;0.10;99.90;;;;;;5059830;28;20479;-58
2022/12/02 11:08:24;;;;;;;26.77;14.18;;;0.10;99.90;;;;;;5055814;28;20040;-57
2022/12/02 11:11:27;;;;;;;32.10;13.93;;;0.10;99.90;;;;;;5050349;28;20028;-53
2022/12/02 11:14:01;;;;;;;28.27;15.00;;;0.20;99.90;;;;;;5050695;28;20033;-58
2022/12/02 11:16:29;;;;;;;31.05;16.23;;;0.20;99.90;;;;;;5056578;28;20064;-55
2022/12/02 11:19:32;;;;;;;30.77;14.73;;;0.20;99.90;;;;;;5059129;28;20477;-56
2022/12/02 11:21:58;;;;;;;30.20;16.20;;;0.20;99.90;;;;;;5037053;28;20435;-57
2022/12/02 11:24:26;;;;;;;36.63;17.58;;;0.20;99.90;;;;;;5069852;28;20025;-58
2022/12/02 11:29:50;;;;;;;39.72;19.13;;;0.30;99.90;;;;;;5058990;28;20102;-57
2022/12/02 11:32:20;;;;;;;35.47;18.02;;;0.30;99.90;;;;;;5031645;28;20497;-52
2022/12/02 11:34:52;;;;;;;32.45;17.52;;;0.30;99.90;;;;;;5070728;28;20036;-58
2022/12/02 11:37:33;;;;;;;41.45;21.40;;;0.30;99.90;;;;;;5070148;28;20105;-58
2022/12/02 11:40:04;;;;;;;40.35;18.35;;;0.30;99.90;;;;;;5050625;28;20043;-53
2022/12/02 11:42:32;;;;;;;35.80;16.48;;;0.30;99.90;;;;;;5057648;28;20040;-53
2022/12/02 11:45:15;;;;;;;37.80;17.27;;;0.30;99.90;;;;;;5067748;28;20032;-53
2022/12/02 11:47:57;;;;;;;41.08;19.55;;;0.30;99.90;;;;;;5065029;28;20028;-56
2022/12/02 11:50:32;;;;;;;45.22;21.20;;;0.30;99.90;;;;;;5069720;28;20134;-53
2022/12/02 11:53:03;;;;;;;35.45;17.75;;;0.30;99.90;;;;;;5069501;28;20056;-58
2022/12/02 11:55:34;;;;;;;34.85;16.77;;;0.30;99.90;;;;;;5069815;28;20389;-57
2022/12/02 11:58:00;;;;;;;41.38;18.13;;;0.20;99.90;;;;;;5069703;28;20029;-53
2022/12/02 12:00:32;;;;;;;32.65;17.35;;;0.20;99.90;;;;;;5070351;28;20022;-52
2022/12/02 12:03:17;;;;;;;39.80;18.70;;;0.20;99.90;;;;;;5051681;28;20032;-56
2022/12/02 12:06:06;;;;;;;34.92;17.10;;;0.20;99.90;;;;;;5068318;28;20028;-56
2022/12/02 12:08:31;;;;;;;40.63;18.48;;;0.20;99.90;;;;;;5068293;28;20029;-58
2022/12/02 12:11:19;;;;;;;36.28;17.50;;;0.30;99.90;;;;;;5068109;28;20114;-57
2022/12/02 12:14:03;;;;;;;34.70;17.02;;;0.30;99.90;;;;;;5068342;28;20074;-53
2022/12/02 12:16:31;;;;;;;36.60;17.70;;;0.30;99.90;;;;;;5067849;28;20060;-57
2022/12/02 12:18:58;;;;;;;41.28;18.30;;;0.30;99.90;;;;;;5069228;28;20078;-55
2022/12/02 12:21:30;;;;;;;40.28;16.42;;;0.30;99.90;;;;;;5070060;28;20032;-57
2022/12/02 12:24:25;;;;;;;34.60;17.80;;;0.30;99.90;;;;;;5069680;28;20021;-56
2022/12/02 12:27:03;;;;;;;40.60;19.52;;;0.30;99.90;;;;;;5069600;28;20476;-55
2022/12/02 12:29:34;;;;;;;35.72;18.08;;;0.30;99.90;;;;;;5051402;28;20867;-54
2022/12/02 12:32:00;;;;;;;31.13;16.00;;;0.30;99.90;;;;;;5068791;28;20541;-54
2022/12/02 12:34:27;;;;;;;35.47;17.37;;;0.30;99.90;;;;;;5063212;28;20063;-52
2022/12/02 12:36:53;;;;;;;32.72;17.52;;;0.30;99.90;;;;;;5059943;28;20044;-53
2022/12/02 12:39:19;;;;;;;39.72;19.20;;;0.30;99.90;;;;;;5059884;28;20087;-54
2022/12/02 12:41:44;;;;;;;35.70;18.38;;;0.30;99.90;;;;;;5032909;28;20020;-54
2022/12/02 12:44:11;;;;;;;35.97;17.80;;;0.30;99.90;;;;;;5071303;28;20020;-56
2022/12/02 12:46:37;;;;;;;51.15;24.58;;;0.40;99.90;;;;;;5073787;28;20033;-53
2022/12/02 12:49:03;;;;;;;34.83;17.75;;;0.40;99.90;;;;;;5063385;28;20731;-53
2022/12/02 12:51:29;;;;;;;31.73;16.63;;;0.40;99.90;;;;;;5053131;28;20032;-55